sensor_id;sensor_type;location;lat;lon;timestamp;P1;durP1;ratioP1;P2;durP2;ratioP2
52730;SDS011;38624;53.242;6.974;2023-08-21T18:24:56;9.57;;;5.57;;
52730;SDS011;38624;53.242;6.974;2023-08-21T18:27:21;48.97;;;43.60;;
52730;SDS011;38624;53.242;6.974;2023-08-21T18:29:47;40.10;;;32.93;;
52730;SDS011;38624;53.242;6.974;2023-08-21T18:32:13;14.73;;;7.57;;
52730;SDS011;38624;53.242;6.974;2023-08-21T18:34:39;7.28;;;4.68;;
52730;SDS011;38624;53.242;6.974;2023-08-21T18:37:08;13.93;;;4.77;;
52730;SDS011;38624;53.242;6.974;2023-08-21T18:39:34;15.65;;;12.48;;
52730;SDS011;38624;53.242;6.974;2023-08-21T18:41:59;15.43;;;12.23;;
52730;SDS011;38624;53.242;6.974;2023-08-21T18:44:25;11.27;;;4.93;;
52730;SDS011;38624;53.242;6.974;2023-08-21T18:46:52;7.03;;;3.13;;
52730;SDS011;38624;53.242;6.974;2023-08-21T18:49:18;5.40;;;2.85;;
52730;SDS011;38624;53.242;6.974;2023-08-21T18:51:43;7.40;;;2.53;;
52730;SDS011;38624;53.242;6.974;2023-08-21T18:54:09;6.43;;;1.80;;
52730;SDS011;38624;53.242;6.974;2023-08-21T18:56:35;5.03;;;1.93;;
52730;SDS011;38624;53.242;6.974;2023-08-21T18:59:01;5.20;;;1.90;;
52730;SDS011;38624;53.242;6.974;2023-08-21T19:01:27;5.35;;;2.33;;
52730;SDS011;38624;53.242;6.974;2023-08-21T19:03:52;8.20;;;2.55;;
52730;SDS011;38624;53.242;6.974;2023-08-21T19:06:18;4.80;;;2.07;;
52730;SDS011;38624;53.242;6.974;2023-08-21T19:08:44;4.67;;;1.70;;
52730;SDS011;38624;53.242;6.974;2023-08-21T19:11:10;6.00;;;3.00;;
52730;SDS011;38624;53.242;6.974;2023-08-21T19:13:36;9.45;;;2.88;;
52730;SDS011;38624;53.242;6.974;2023-08-21T19:16:03;10.50;;;3.13;;
52730;SDS011;38624;53.242;6.974;2023-08-21T19:18:29;9.65;;;2.95;;
52730;SDS011;38624;53.242;6.974;2023-08-21T19:20:58;6.72;;;3.00;;
52730;SDS011;38624;53.242;6.974;2023-08-21T19:23:24;8.82;;;4.47;;
52730;SDS011;38624;53.242;6.974;2023-08-21T19:25:50;10.52;;;4.03;;
52730;SDS011;38624;53.242;6.974;2023-08-21T19:28:17;9.45;;;4.80;;
52730;SDS011;38624;53.242;6.974;2023-08-21T19:30:43;11.32;;;5.90;;
52730;SDS011;38624;53.242;6.974;2023-08-21T19:33:14;7.97;;;4.70;;
52730;SDS011;38624;53.242;6.974;2023-08-21T19:35:41;6.63;;;4.18;;
52730;SDS011;38624;53.242;6.974;2023-08-21T19:38:08;7.10;;;3.50;;
52730;SDS011;38624;53.242;6.974;2023-08-21T19:40:36;6.07;;;3.30;;
52730;SDS011;38624;53.242;6.974;2023-08-21T19:43:02;9.80;;;3.00;;
52730;SDS011;38624;53.242;6.974;2023-08-21T19:45:28;9.20;;;3.35;;
52730;SDS011;38624;53.242;6.974;2023-08-21T19:47:54;6.97;;;3.20;;
52730;SDS011;38624;53.242;6.974;2023-08-21T19:50:20;10.47;;;3.83;;
52730;SDS011;38624;53.242;6.974;2023-08-21T19:52:45;9.27;;;3.40;;
52730;SDS011;38624;53.242;6.974;2023-08-21T19:55:11;8.20;;;3.67;;
52730;SDS011;38624;53.242;6.974;2023-08-21T19:57:37;7.07;;;3.37;;
52730;SDS011;38624;53.242;6.974;2023-08-21T20:00:03;13.70;;;6.00;;
52730;SDS011;38624;53.242;6.974;2023-08-21T20:02:30;12.38;;;9.07;;
52730;SDS011;38624;53.242;6.974;2023-08-21T20:04:56;13.17;;;9.43;;
52730;SDS011;38624;53.242;6.974;2023-08-21T20:07:21;10.87;;;6.57;;
52730;SDS011;38624;53.242;6.974;2023-08-21T20:09:47;20.50;;;15.77;;
52730;SDS011;38624;53.242;6.974;2023-08-21T20:12:13;69.50;;;53.97;;
52730;SDS011;38624;53.242;6.974;2023-08-21T20:14:38;87.33;;;68.77;;
52730;SDS011;38624;53.242;6.974;2023-08-21T20:17:07;65.75;;;52.63;;
52730;SDS011;38624;53.242;6.974;2023-08-21T20:19:33;92.70;;;71.13;;
52730;SDS011;38624;53.242;6.974;2023-08-21T20:21:58;44.40;;;35.37;;
52730;SDS011;38624;53.242;6.974;2023-08-21T20:24:24;29.37;;;19.60;;
52730;SDS011;38624;53.242;6.974;2023-08-21T20:26:51;49.27;;;35.43;;
52730;SDS011;38624;53.242;6.974;2023-08-21T20:31:42;129.70;;;95.28;;
52730;SDS011;38624;53.242;6.974;2023-08-21T20:34:08;164.00;;;123.60;;
52730;SDS011;38624;53.242;6.974;2023-08-21T20:36:34;161.07;;;122.88;;
52730;SDS011;38624;53.242;6.974;2023-08-21T20:41:27;139.90;;;106.22;;
52730;SDS011;38624;53.242;6.974;2023-08-21T20:43:53;139.85;;;107.07;;
52730;SDS011;38624;53.242;6.974;2023-08-21T20:46:18;149.47;;;112.43;;
52730;SDS011;38624;53.242;6.974;2023-08-21T20:48:44;160.67;;;111.70;;
52730;SDS011;38624;53.242;6.974;2023-08-21T20:51:10;150.30;;;107.30;;
52730;SDS011;38624;53.242;6.974;2023-08-21T20:53:36;142.97;;;100.27;;
52730;SDS011;38624;53.242;6.974;2023-08-21T20:56:02;108.97;;;79.60;;
52730;SDS011;38624;53.242;6.974;2023-08-21T20:58:28;90.05;;;67.15;;
52730;SDS011;38624;53.242;6.974;2023-08-21T21:00:54;92.50;;;65.00;;
52730;SDS011;38624;53.242;6.974;2023-08-21T21:03:20;86.65;;;60.95;;
52730;SDS011;38624;53.242;6.974;2023-08-21T21:05:46;59.53;;;45.00;;
52730;SDS011;38624;53.242;6.974;2023-08-21T21:08:12;59.00;;;43.27;;
52730;SDS011;38624;53.242;6.974;2023-08-21T21:10:37;56.53;;;40.33;;
52730;SDS011;38624;53.242;6.974;2023-08-21T21:13:03;43.77;;;32.83;;
52730;SDS011;38624;53.242;6.974;2023-08-21T21:15:29;51.70;;;38.03;;
52730;SDS011;38624;53.242;6.974;2023-08-21T21:17:55;47.50;;;35.55;;
52730;SDS011;38624;53.242;6.974;2023-08-21T21:20:22;43.40;;;30.30;;
52730;SDS011;38624;53.242;6.974;2023-08-21T21:22:48;41.75;;;27.20;;
52730;SDS011;38624;53.242;6.974;2023-08-21T21:25:13;25.10;;;16.37;;
52730;SDS011;38624;53.242;6.974;2023-08-21T21:27:39;21.53;;;14.57;;
52730;SDS011;38624;53.242;6.974;2023-08-21T21:30:05;21.20;;;13.53;;
52730;SDS011;38624;53.242;6.974;2023-08-21T21:32:31;23.60;;;14.57;;
52730;SDS011;38624;53.242;6.974;2023-08-21T21:34:57;18.67;;;12.23;;
52730;SDS011;38624;53.242;6.974;2023-08-21T21:37:23;21.80;;;12.13;;
52730;SDS011;38624;53.242;6.974;2023-08-21T21:39:49;20.35;;;11.05;;
52730;SDS011;38624;53.242;6.974;2023-08-21T21:42:15;17.40;;;10.60;;
52730;SDS011;38624;53.242;6.974;2023-08-21T21:44:43;19.10;;;9.98;;
52730;SDS011;38624;53.242;6.974;2023-08-21T21:47:08;9.00;;;4.43;;
52730;SDS011;38624;53.242;6.974;2023-08-21T21:49:34;15.23;;;6.50;;
52730;SDS011;38624;53.242;6.974;2023-08-21T21:52:00;11.10;;;5.53;;
52730;SDS011;38624;53.242;6.974;2023-08-21T21:54:25;8.87;;;4.87;;
52730;SDS011;38624;53.242;6.974;2023-08-21T21:56:51;19.83;;;6.20;;
52730;SDS011;38624;53.242;6.974;2023-08-21T21:59:17;13.93;;;5.70;;
52730;SDS011;38624;53.242;6.974;2023-08-21T22:01:42;10.23;;;5.20;;
52730;SDS011;38624;53.242;6.974;2023-08-21T22:04:08;13.47;;;4.87;;
52730;SDS011;38624;53.242;6.974;2023-08-21T22:06:34;8.27;;;4.13;;
52730;SDS011;38624;53.242;6.974;2023-08-21T22:09:04;7.22;;;3.92;;
52730;SDS011;38624;53.242;6.974;2023-08-21T22:11:29;8.10;;;4.22;;
52730;SDS011;38624;53.242;6.974;2023-08-21T22:13:55;6.40;;;4.00;;
52730;SDS011;38624;53.242;6.974;2023-08-21T22:16:21;7.67;;;3.87;;
52730;SDS011;38624;53.242;6.974;2023-08-21T22:18:47;6.20;;;3.40;;
52730;SDS011;38624;53.242;6.974;2023-08-21T22:21:12;7.20;;;3.57;;
52730;SDS011;38624;53.242;6.974;2023-08-21T22:23:38;7.32;;;3.63;;
52730;SDS011;38624;53.242;6.974;2023-08-21T22:26:04;6.23;;;3.70;;
52730;SDS011;38624;53.242;6.974;2023-08-21T22:28:30;8.13;;;4.43;;
52730;SDS011;38624;53.242;6.974;2023-08-21T22:30:56;11.93;;;5.60;;
52730;SDS011;38624;53.242;6.974;2023-08-21T22:33:21;9.63;;;6.27;;
52730;SDS011;38624;53.242;6.974;2023-08-21T22:35:47;8.77;;;5.47;;
52730;SDS011;38624;53.242;6.974;2023-08-21T22:38:13;10.83;;;5.40;;
52730;SDS011;38624;53.242;6.974;2023-08-21T22:40:38;12.13;;;5.83;;
52730;SDS011;38624;53.242;6.974;2023-08-21T22:43:04;12.10;;;5.83;;
52730;SDS011;38624;53.242;6.974;2023-08-21T22:45:30;11.87;;;6.13;;
52730;SDS011;38624;53.242;6.974;2023-08-21T22:47:55;9.83;;;5.60;;
52730;SDS011;38624;53.242;6.974;2023-08-21T22:50:21;11.30;;;6.20;;
52730;SDS011;38624;53.242;6.974;2023-08-21T22:52:47;9.50;;;5.80;;
52730;SDS011;38624;53.242;6.974;2023-08-21T22:55:12;12.17;;;6.20;;
52730;SDS011;38624;53.242;6.974;2023-08-21T22:57:38;10.10;;;7.00;;
52730;SDS011;38624;53.242;6.974;2023-08-21T23:00:11;14.00;;;6.88;;
52730;SDS011;38624;53.242;6.974;2023-08-21T23:02:38;10.68;;;5.78;;
52730;SDS011;38624;53.242;6.974;2023-08-21T23:05:03;13.30;;;6.07;;
52730;SDS011;38624;53.242;6.974;2023-08-21T23:07:30;10.38;;;6.30;;
52730;SDS011;38624;53.242;6.974;2023-08-21T23:09:55;11.13;;;6.60;;
52730;SDS011;38624;53.242;6.974;2023-08-21T23:12:21;14.13;;;6.17;;
52730;SDS011;38624;53.242;6.974;2023-08-21T23:14:47;13.23;;;6.10;;
52730;SDS011;38624;53.242;6.974;2023-08-21T23:17:13;12.40;;;6.40;;
52730;SDS011;38624;53.242;6.974;2023-08-21T23:19:38;10.97;;;6.60;;
52730;SDS011;38624;53.242;6.974;2023-08-21T23:22:04;10.70;;;7.20;;
52730;SDS011;38624;53.242;6.974;2023-08-21T23:24:29;13.77;;;7.90;;
52730;SDS011;38624;53.242;6.974;2023-08-21T23:26:55;11.07;;;6.83;;
52730;SDS011;38624;53.242;6.974;2023-08-21T23:29:22;12.13;;;7.13;;
52730;SDS011;38624;53.242;6.974;2023-08-21T23:31:48;13.65;;;7.00;;
52730;SDS011;38624;53.242;6.974;2023-08-21T23:34:13;10.63;;;6.63;;
52730;SDS011;38624;53.242;6.974;2023-08-21T23:36:39;9.47;;;6.73;;
52730;SDS011;38624;53.242;6.974;2023-08-21T23:39:05;11.77;;;7.10;;
52730;SDS011;38624;53.242;6.974;2023-08-21T23:41:33;15.00;;;7.80;;
52730;SDS011;38624;53.242;6.974;2023-08-21T23:43:59;11.77;;;7.78;;
52730;SDS011;38624;53.242;6.974;2023-08-21T23:46:25;12.40;;;7.53;;
52730;SDS011;38624;53.242;6.974;2023-08-21T23:48:51;11.07;;;6.60;;
52730;SDS011;38624;53.242;6.974;2023-08-21T23:51:16;11.90;;;6.57;;
52730;SDS011;38624;53.242;6.974;2023-08-21T23:53:42;13.87;;;8.37;;
52730;SDS011;38624;53.242;6.974;2023-08-21T23:56:08;16.40;;;9.27;;
52730;SDS011;38624;53.242;6.974;2023-08-21T23:58:34;17.43;;;11.27;;
